METAR Data
IDs: Format: Raw Decoded Include TAF

Data at: 1132 UTC 07 Oct 2022

KRGK 071115Z AUTO 00000KT 10SM BKN032 OVC065 03/02 A3049 RMK AO2